sensor_id;sensor_type;location;lat;lon;timestamp;pressure;altitude;pressure_sealevel;temperature;humidity
43683;BME280;29285;52.128;21.060;2023-04-24T00:04:33;99498.98;;;14.97;49.97
43683;BME280;29285;52.128;21.060;2023-04-24T00:09:34;99502.65;;;14.82;50.17
43683;BME280;29285;52.128;21.060;2023-04-24T00:14:36;99495.67;;;14.74;50.61
43683;BME280;29285;52.128;21.060;2023-04-24T00:19:37;99494.46;;;14.66;51.00
43683;BME280;29285;52.128;21.060;2023-04-24T00:24:38;99496.08;;;14.61;51.46
43683;BME280;29285;52.128;21.060;2023-04-24T00:29:40;99490.48;;;14.50;51.74
43683;BME280;29285;52.128;21.060;2023-04-24T00:34:41;99484.70;;;14.42;52.12
43683;BME280;29285;52.128;21.060;2023-04-24T00:39:43;99478.39;;;14.39;52.42
43683;BME280;29285;52.128;21.060;2023-04-24T00:44:44;99472.67;;;14.27;52.72
43683;BME280;29285;52.128;21.060;2023-04-24T00:49:45;99469.20;;;14.23;53.12
43683;BME280;29285;52.128;21.060;2023-04-24T00:54:46;99464.93;;;14.16;53.51
43683;BME280;29285;52.128;21.060;2023-04-24T00:59:47;99470.71;;;14.20;54.00
43683;BME280;29285;52.128;21.060;2023-04-24T01:04:50;99471.80;;;14.27;54.52
43683;BME280;29285;52.128;21.060;2023-04-24T01:09:52;99477.45;;;14.22;54.80
43683;BME280;29285;52.128;21.060;2023-04-24T01:14:54;99466.70;;;14.28;55.33
43683;BME280;29285;52.128;21.060;2023-04-24T01:19:55;99467.05;;;14.28;55.79
43683;BME280;29285;52.128;21.060;2023-04-24T01:24:58;99478.71;;;14.24;56.11
43683;BME280;29285;52.128;21.060;2023-04-24T01:29:59;99474.09;;;14.22;56.37
43683;BME280;29285;52.128;21.060;2023-04-24T01:35:01;99472.91;;;14.33;57.00
43683;BME280;29285;52.128;21.060;2023-04-24T01:40:04;99469.21;;;14.34;57.27
43683;BME280;29285;52.128;21.060;2023-04-24T01:45:10;99465.52;;;14.39;57.49
43683;BME280;29285;52.128;21.060;2023-04-24T01:50:11;99464.81;;;14.39;57.73
43683;BME280;29285;52.128;21.060;2023-04-24T01:55:12;99465.55;;;14.34;57.93
43683;BME280;29285;52.128;21.060;2023-04-24T02:00:13;99456.39;;;14.28;58.12
43683;BME280;29285;52.128;21.060;2023-04-24T04:52:33;99423.63;;;13.92;70.41
43683;BME280;29285;52.128;21.060;2023-04-24T04:57:34;99421.83;;;13.93;70.43
43683;BME280;29285;52.128;21.060;2023-04-24T05:02:35;99418.15;;;13.86;70.05
43683;BME280;29285;52.128;21.060;2023-04-24T05:07:36;99416.14;;;13.92;70.13
43683;BME280;29285;52.128;21.060;2023-04-24T05:12:37;99415.04;;;14.05;70.42
43683;BME280;29285;52.128;21.060;2023-04-24T05:17:38;99410.34;;;14.12;70.41
43683;BME280;29285;52.128;21.060;2023-04-24T05:22:40;99406.80;;;14.22;70.59
43683;BME280;29285;52.128;21.060;2023-04-24T05:27:41;99405.29;;;14.32;70.79
43683;BME280;29285;52.128;21.060;2023-04-24T05:32:43;99407.38;;;14.47;71.03
43683;BME280;29285;52.128;21.060;2023-04-24T05:37:44;99403.88;;;14.66;71.34
43683;BME280;29285;52.128;21.060;2023-04-24T05:42:45;99403.90;;;14.88;71.77
43683;BME280;29285;52.128;21.060;2023-04-24T05:47:46;99403.58;;;15.05;71.94
43683;BME280;29285;52.128;21.060;2023-04-24T05:52:47;99403.36;;;15.20;72.05
43683;BME280;29285;52.128;21.060;2023-04-24T05:57:48;99398.13;;;15.38;72.20
43683;BME280;29285;52.128;21.060;2023-04-24T06:02:49;99393.45;;;15.58;72.43
43683;BME280;29285;52.128;21.060;2023-04-24T06:07:51;99386.41;;;15.76;72.56
43683;BME280;29285;52.128;21.060;2023-04-24T06:12:52;99388.16;;;15.93;72.84
43683;BME280;29285;52.128;21.060;2023-04-24T06:17:53;99390.14;;;16.05;72.93
43683;BME280;29285;52.128;21.060;2023-04-24T06:22:54;99386.83;;;16.14;72.93
43683;BME280;29285;52.128;21.060;2023-04-24T06:27:55;99384.27;;;16.26;73.03
43683;BME280;29285;52.128;21.060;2023-04-24T06:32:57;99377.17;;;16.41;73.22
43683;BME280;29285;52.128;21.060;2023-04-24T06:37:58;99374.98;;;16.59;73.57
43683;BME280;29285;52.128;21.060;2023-04-24T06:42:59;99370.75;;;16.74;73.85
43683;BME280;29285;52.128;21.060;2023-04-24T06:48:03;99367.67;;;16.89;73.87
43683;BME280;29285;52.128;21.060;2023-04-24T06:53:04;99368.35;;;17.05;74.12
43683;BME280;29285;52.128;21.060;2023-04-24T06:58:05;99366.67;;;17.24;74.28
43683;BME280;29285;52.128;21.060;2023-04-24T07:03:07;99365.79;;;17.51;74.82
43683;BME280;29285;52.128;21.060;2023-04-24T07:08:08;99365.48;;;17.83;75.35
43683;BME280;29285;52.128;21.060;2023-04-24T07:13:09;99364.56;;;18.07;75.78
43683;BME280;29285;52.128;21.060;2023-04-24T07:18:10;99360.05;;;18.12;75.32
43683;BME280;29285;52.128;21.060;2023-04-24T07:23:11;99362.71;;;18.23;75.00
43683;BME280;29285;52.128;21.060;2023-04-24T07:28:12;99357.06;;;18.29;74.73
43683;BME280;29285;52.128;21.060;2023-04-24T07:33:14;99353.02;;;18.40;74.64
43683;BME280;29285;52.128;21.060;2023-04-24T07:38:15;99353.58;;;18.61;74.87
43683;BME280;29285;52.128;21.060;2023-04-24T07:43:16;99354.86;;;18.80;74.88
43683;BME280;29285;52.128;21.060;2023-04-24T07:48:17;99352.45;;;19.00;74.75
43683;BME280;29285;52.128;21.060;2023-04-24T07:53:19;99351.99;;;19.20;74.74
43683;BME280;29285;52.128;21.060;2023-04-24T07:58:20;99350.52;;;19.35;74.44
43683;BME280;29285;52.128;21.060;2023-04-24T08:03:22;99346.54;;;19.52;74.30
43683;BME280;29285;52.128;21.060;2023-04-24T08:08:23;99342.30;;;19.73;74.10
43683;BME280;29285;52.128;21.060;2023-04-24T08:13:24;99342.41;;;19.91;74.05
43683;BME280;29285;52.128;21.060;2023-04-24T08:18:26;99338.11;;;20.01;73.78
43683;BME280;29285;52.128;21.060;2023-04-24T08:23:27;99336.73;;;20.03;73.23
43683;BME280;29285;52.128;21.060;2023-04-24T08:28:29;99338.32;;;20.05;73.03
43683;BME280;29285;52.128;21.060;2023-04-24T08:33:30;99341.45;;;19.98;72.04
43683;BME280;29285;52.128;21.060;2023-04-24T08:38:35;99337.48;;;20.04;71.32
43683;BME280;29285;52.128;21.060;2023-04-24T08:43:36;99333.29;;;20.26;71.24
43683;BME280;29285;52.128;21.060;2023-04-24T08:48:39;99333.02;;;20.54;71.22
43683;BME280;29285;52.128;21.060;2023-04-24T08:53:43;99330.88;;;20.79;71.03
43683;BME280;29285;52.128;21.060;2023-04-24T08:58:45;99322.67;;;20.92;70.61
43683;BME280;29285;52.128;21.060;2023-04-24T09:03:49;99325.23;;;20.91;69.35
43683;BME280;29285;52.128;21.060;2023-04-24T09:08:52;99317.92;;;21.13;69.25
43683;BME280;29285;52.128;21.060;2023-04-24T09:13:55;99317.36;;;21.37;69.21
43683;BME280;29285;52.128;21.060;2023-04-24T09:18:57;99313.52;;;21.48;68.41
43683;BME280;29285;52.128;21.060;2023-04-24T09:24:03;99310.60;;;21.60;67.98
43683;BME280;29285;52.128;21.060;2023-04-24T09:29:05;99311.27;;;21.70;67.39
43683;BME280;29285;52.128;21.060;2023-04-24T09:34:07;99311.03;;;21.73;66.72
43683;BME280;29285;52.128;21.060;2023-04-24T09:39:10;99303.33;;;21.77;66.19
43683;BME280;29285;52.128;21.060;2023-04-24T09:44:21;99300.79;;;21.69;65.40
43683;BME280;29285;52.128;21.060;2023-04-24T09:54:25;99299.45;;;21.50;64.51
43683;BME280;29285;52.128;21.060;2023-04-24T09:59:27;99296.39;;;21.41;64.25
43683;BME280;29285;52.128;21.060;2023-04-24T10:04:28;99285.60;;;21.39;64.08
43683;BME280;29285;52.128;21.060;2023-04-24T10:09:29;99280.52;;;21.46;63.91
43683;BME280;29285;52.128;21.060;2023-04-24T10:14:31;99276.55;;;21.58;64.17
43683;BME280;29285;52.128;21.060;2023-04-24T10:19:32;99276.68;;;21.70;64.06
43683;BME280;29285;52.128;21.060;2023-04-24T10:24:34;99269.85;;;21.81;63.82
43683;BME280;29285;52.128;21.060;2023-04-24T10:29:38;99263.38;;;21.89;63.27
43683;BME280;29285;52.128;21.060;2023-04-24T10:34:41;99257.73;;;22.02;63.15
43683;BME280;29285;52.128;21.060;2023-04-24T10:39:42;99253.66;;;22.22;63.14
43683;BME280;29285;52.128;21.060;2023-04-24T10:44:48;99249.85;;;22.43;63.06
43683;BME280;29285;52.128;21.060;2023-04-24T10:49:51;99246.80;;;22.65;62.79
43683;BME280;29285;52.128;21.060;2023-04-24T10:54:52;99243.36;;;22.83;62.37
43683;BME280;29285;52.128;21.060;2023-04-24T11:00:20;99240.42;;;23.01;61.75
43683;BME280;29285;52.128;21.060;2023-04-24T11:05:22;99238.42;;;23.19;60.89
43683;BME280;29285;52.128;21.060;2023-04-24T11:10:26;99238.20;;;23.40;60.24
43683;BME280;29285;52.128;21.060;2023-04-24T11:15:27;99234.20;;;23.59;59.35
43683;BME280;29285;52.128;21.060;2023-04-24T11:20:31;99233.45;;;23.74;58.35
43683;BME280;29285;52.128;21.060;2023-04-24T11:25:32;99230.27;;;23.90;57.52
43683;BME280;29285;52.128;21.060;2023-04-24T11:30:33;99227.54;;;24.07;56.95
43683;BME280;29285;52.128;21.060;2023-04-24T11:35:39;99226.27;;;24.22;56.05
43683;BME280;29285;52.128;21.060;2023-04-24T11:40:41;99225.86;;;24.30;55.05
43683;BME280;29285;52.128;21.060;2023-04-24T11:45:47;99219.25;;;24.45;54.48
43683;BME280;29285;52.128;21.060;2023-04-24T11:50:49;99217.40;;;24.55;53.52
43683;BME280;29285;52.128;21.060;2023-04-24T11:55:56;99213.39;;;24.73;53.18
43683;BME280;29285;52.128;21.060;2023-04-24T12:00:57;99206.44;;;24.86;52.31
43683;BME280;29285;52.128;21.060;2023-04-24T12:06:09;99200.30;;;24.92;51.28
43683;BME280;29285;52.128;21.060;2023-04-24T12:11:11;99189.10;;;25.19;51.26
43683;BME280;29285;52.128;21.060;2023-04-24T12:16:13;99185.87;;;25.40;50.86
43683;BME280;29285;52.128;21.060;2023-04-24T12:21:21;99182.73;;;25.49;50.15
43683;BME280;29285;52.128;21.060;2023-04-24T12:26:22;99181.77;;;25.59;49.46
43683;BME280;29285;52.128;21.060;2023-04-24T12:31:24;99180.58;;;25.75;48.65
43683;BME280;29285;52.128;21.060;2023-04-24T12:36:25;99201.44;;;25.33;46.10
43683;BME280;29285;52.128;21.060;2023-04-24T12:41:30;99216.27;;;23.92;41.09
43683;BME280;29285;52.128;21.060;2023-04-24T12:46:31;99224.14;;;22.46;39.65
43683;BME280;29285;52.128;21.060;2023-04-24T12:51:32;99225.39;;;21.67;40.50
43683;BME280;29285;52.128;21.060;2023-04-24T12:56:33;99217.89;;;21.35;42.13
43683;BME280;29285;52.128;21.060;2023-04-24T13:01:35;99216.41;;;21.40;43.09
43683;BME280;29285;52.128;21.060;2023-04-24T13:06:36;99217.45;;;21.36;43.65
43683;BME280;29285;52.128;21.060;2023-04-24T13:11:37;99217.38;;;21.48;44.11
43683;BME280;29285;52.128;21.060;2023-04-24T13:16:38;99210.91;;;21.54;43.57
43683;BME280;29285;52.128;21.060;2023-04-24T13:21:39;99213.96;;;21.66;43.44
43683;BME280;29285;52.128;21.060;2023-04-24T13:26:40;99205.95;;;21.43;42.86
43683;BME280;29285;52.128;21.060;2023-04-24T13:31:41;99220.13;;;21.10;42.89
43683;BME280;29285;52.128;21.060;2023-04-24T13:36:42;99221.52;;;20.89;43.00
43683;BME280;29285;52.128;21.060;2023-04-24T13:41:44;99218.88;;;21.19;43.83
43683;BME280;29285;52.128;21.060;2023-04-24T13:46:47;99212.09;;;21.44;44.12
43683;BME280;29285;52.128;21.060;2023-04-24T13:51:48;99209.02;;;21.37;44.13
43683;BME280;29285;52.128;21.060;2023-04-24T13:56:49;99191.08;;;21.16;43.84
43683;BME280;29285;52.128;21.060;2023-04-24T14:01:51;99179.89;;;20.97;43.71
43683;BME280;29285;52.128;21.060;2023-04-24T14:06:53;99159.07;;;20.97;44.02
43683;BME280;29285;52.128;21.060;2023-04-24T14:11:54;99149.23;;;21.17;44.48
43683;BME280;29285;52.128;21.060;2023-04-24T14:16:55;99143.00;;;21.47;45.24
43683;BME280;29285;52.128;21.060;2023-04-24T14:21:56;99138.64;;;21.71;45.61
43683;BME280;29285;52.128;21.060;2023-04-24T14:26:59;99128.99;;;21.88;45.79
43683;BME280;29285;52.128;21.060;2023-04-24T14:32:00;99127.94;;;21.96;45.80
43683;BME280;29285;52.128;21.060;2023-04-24T14:37:02;99123.89;;;22.02;45.83
43683;BME280;29285;52.128;21.060;2023-04-24T14:42:03;99118.70;;;22.10;45.87
43683;BME280;29285;52.128;21.060;2023-04-24T14:47:04;99115.91;;;22.18;46.06
43683;BME280;29285;52.128;21.060;2023-04-24T14:52:06;99111.27;;;22.25;46.22
43683;BME280;29285;52.128;21.060;2023-04-24T14:57:11;99106.36;;;22.30;46.32
43683;BME280;29285;52.128;21.060;2023-04-24T15:02:12;99097.92;;;22.37;46.33
43683;BME280;29285;52.128;21.060;2023-04-24T15:07:13;99096.19;;;22.36;46.12
43683;BME280;29285;52.128;21.060;2023-04-24T15:12:14;99092.92;;;22.46;45.96
43683;BME280;29285;52.128;21.060;2023-04-24T15:17:15;99089.55;;;22.71;46.09
43683;BME280;29285;52.128;21.060;2023-04-24T15:22:17;99089.27;;;23.11;46.28
43683;BME280;29285;52.128;21.060;2023-04-24T15:27:18;99086.58;;;23.13;45.82
43683;BME280;29285;52.128;21.060;2023-04-24T15:32:19;99078.34;;;23.00;45.19
43683;BME280;29285;52.128;21.060;2023-04-24T15:37:20;99069.66;;;22.84;44.64
43683;BME280;29285;52.128;21.060;2023-04-24T15:42:21;99065.70;;;23.27;44.82
43683;BME280;29285;52.128;21.060;2023-04-24T15:47:22;99056.34;;;24.21;45.33
43683;BME280;29285;52.128;21.060;2023-04-24T15:52:25;99047.02;;;25.04;45.22
43683;BME280;29285;52.128;21.060;2023-04-24T15:57:26;99036.94;;;25.61;44.50
43683;BME280;29285;52.128;21.060;2023-04-24T16:02:27;99036.35;;;25.92;43.58
43683;BME280;29285;52.128;21.060;2023-04-24T16:07:28;99035.77;;;25.76;42.24
43683;BME280;29285;52.128;21.060;2023-04-24T16:12:29;99030.31;;;25.24;41.18
43683;BME280;29285;52.128;21.060;2023-04-24T16:17:30;99029.59;;;24.78;40.54
43683;BME280;29285;52.128;21.060;2023-04-24T16:22:32;99026.15;;;24.34;39.91
43683;BME280;29285;52.128;21.060;2023-04-24T16:27:33;99027.88;;;23.98;39.55
43683;BME280;29285;52.128;21.060;2023-04-24T16:32:34;99028.38;;;23.64;39.34
43683;BME280;29285;52.128;21.060;2023-04-24T16:37:36;99040.63;;;23.31;39.04
43683;BME280;29285;52.128;21.060;2023-04-24T16:42:37;99037.98;;;23.01;39.04
43683;BME280;29285;52.128;21.060;2023-04-24T16:47:38;99032.79;;;22.72;39.09
43683;BME280;29285;52.128;21.060;2023-04-24T16:52:46;99034.16;;;22.49;39.26
43683;BME280;29285;52.128;21.060;2023-04-24T16:57:47;99031.15;;;22.32;39.46
43683;BME280;29285;52.128;21.060;2023-04-24T17:02:51;99027.09;;;22.20;39.62
43683;BME280;29285;52.128;21.060;2023-04-24T17:07:53;99028.12;;;22.14;39.90
43683;BME280;29285;52.128;21.060;2023-04-24T17:12:54;99026.52;;;21.99;40.00
43683;BME280;29285;52.128;21.060;2023-04-24T17:17:56;99029.30;;;21.78;40.07
43683;BME280;29285;52.128;21.060;2023-04-24T17:22:57;99023.45;;;21.57;40.28
43683;BME280;29285;52.128;21.060;2023-04-24T17:27:59;99026.46;;;21.31;40.43
43683;BME280;29285;52.128;21.060;2023-04-24T17:32:59;99029.26;;;21.11;40.76
43683;BME280;29285;52.128;21.060;2023-04-24T17:38:01;99031.29;;;20.90;40.99
43683;BME280;29285;52.128;21.060;2023-04-24T17:43:02;99031.70;;;20.65;41.20
43683;BME280;29285;52.128;21.060;2023-04-24T17:48:03;99034.82;;;20.45;41.60
43683;BME280;29285;52.128;21.060;2023-04-24T17:53:04;99032.83;;;20.27;41.99
43683;BME280;29285;52.128;21.060;2023-04-24T17:58:06;99030.27;;;20.05;42.30
43683;BME280;29285;52.128;21.060;2023-04-24T18:03:08;99031.64;;;19.91;42.80
43683;BME280;29285;52.128;21.060;2023-04-24T18:08:09;99032.17;;;19.74;43.13
43683;BME280;29285;52.128;21.060;2023-04-24T18:13:10;99036.39;;;19.58;43.34
43683;BME280;29285;52.128;21.060;2023-04-24T18:18:11;99038.96;;;19.42;43.62
43683;BME280;29285;52.128;21.060;2023-04-24T18:23:12;99045.50;;;19.34;43.90
43683;BME280;29285;52.128;21.060;2023-04-24T18:28:13;99047.88;;;19.28;44.02
43683;BME280;29285;52.128;21.060;2023-04-24T18:33:15;99047.81;;;19.22;43.97
43683;BME280;29285;52.128;21.060;2023-04-24T18:38:16;99052.14;;;19.15;44.00
43683;BME280;29285;52.128;21.060;2023-04-24T18:43:17;99053.34;;;19.13;44.06
43683;BME280;29285;52.128;21.060;2023-04-24T18:48:18;99060.27;;;19.10;43.98
43683;BME280;29285;52.128;21.060;2023-04-24T18:53:19;99065.17;;;19.00;43.83
43683;BME280;29285;52.128;21.060;2023-04-24T18:58:21;99065.34;;;18.87;43.64
43683;BME280;29285;52.128;21.060;2023-04-24T19:03:22;99070.00;;;18.81;43.69
43683;BME280;29285;52.128;21.060;2023-04-24T19:08:23;99071.35;;;18.71;43.69
43683;BME280;29285;52.128;21.060;2023-04-24T19:13:24;99074.16;;;18.56;43.49
43683;BME280;29285;52.128;21.060;2023-04-24T19:18:25;99072.02;;;18.41;43.49
43683;BME280;29285;52.128;21.060;2023-04-24T19:23:29;99076.08;;;18.30;43.62
43683;BME280;29285;52.128;21.060;2023-04-24T19:28:30;99076.49;;;18.22;43.67
43683;BME280;29285;52.128;21.060;2023-04-24T19:33:32;99078.64;;;18.16;43.79
43683;BME280;29285;52.128;21.060;2023-04-24T19:38:33;99076.15;;;18.08;43.96
43683;BME280;29285;52.128;21.060;2023-04-24T19:43:34;99080.90;;;17.97;43.97
43683;BME280;29285;52.128;21.060;2023-04-24T19:48:35;99073.39;;;18.02;44.39
43683;BME280;29285;52.128;21.060;2023-04-24T19:53:36;99072.92;;;18.01;44.65
43683;BME280;29285;52.128;21.060;2023-04-24T19:58:37;99072.66;;;17.94;44.79
43683;BME280;29285;52.128;21.060;2023-04-24T20:03:39;99072.98;;;17.87;44.89
43683;BME280;29285;52.128;21.060;2023-04-24T20:08:42;99086.41;;;17.72;44.91
43683;BME280;29285;52.128;21.060;2023-04-24T20:13:44;99094.53;;;17.47;44.94
43683;BME280;29285;52.128;21.060;2023-04-24T20:18:45;99097.39;;;17.15;45.03
43683;BME280;29285;52.128;21.060;2023-04-24T20:23:47;99094.70;;;16.98;45.35
43683;BME280;29285;52.128;21.060;2023-04-24T20:28:48;99102.02;;;16.99;45.96
43683;BME280;29285;52.128;21.060;2023-04-24T20:33:49;99103.56;;;16.88;46.16
43683;BME280;29285;52.128;21.060;2023-04-24T20:38:50;99104.75;;;16.77;46.49
43683;BME280;29285;52.128;21.060;2023-04-24T20:43:51;99102.39;;;16.58;46.76
43683;BME280;29285;52.128;21.060;2023-04-24T20:48:52;99101.69;;;16.44;47.44
43683;BME280;29285;52.128;21.060;2023-04-24T20:53:54;99100.06;;;16.42;48.43
43683;BME280;29285;52.128;21.060;2023-04-24T20:58:55;99101.73;;;16.40;49.26
43683;BME280;29285;52.128;21.060;2023-04-24T21:03:56;99100.95;;;16.50;50.27
43683;BME280;29285;52.128;21.060;2023-04-24T21:08:57;99105.16;;;16.53;50.96
43683;BME280;29285;52.128;21.060;2023-04-24T21:13:58;99116.75;;;16.46;51.58
43683;BME280;29285;52.128;21.060;2023-04-24T21:18:59;99121.33;;;16.16;51.88
43683;BME280;29285;52.128;21.060;2023-04-24T21:24:00;99126.77;;;15.79;52.43
43683;BME280;29285;52.128;21.060;2023-04-24T21:29:01;99129.56;;;15.47;53.42
43683;BME280;29285;52.128;21.060;2023-04-24T21:34:02;99133.50;;;15.19;54.90
43683;BME280;29285;52.128;21.060;2023-04-24T21:39:03;99129.02;;;15.02;56.20
43683;BME280;29285;52.128;21.060;2023-04-24T21:44:05;99122.85;;;14.90;57.56
43683;BME280;29285;52.128;21.060;2023-04-24T21:49:06;99117.11;;;14.83;58.71
43683;BME280;29285;52.128;21.060;2023-04-24T21:54:07;99116.63;;;14.75;59.71
43683;BME280;29285;52.128;21.060;2023-04-24T21:59:08;99118.05;;;14.68;60.63
43683;BME280;29285;52.128;21.060;2023-04-24T22:04:10;99116.66;;;14.64;61.44
43683;BME280;29285;52.128;21.060;2023-04-24T22:09:11;99116.23;;;14.72;62.61
43683;BME280;29285;52.128;21.060;2023-04-24T22:14:13;99112.33;;;14.63;63.38
43683;BME280;29285;52.128;21.060;2023-04-24T22:19:14;99107.52;;;14.49;64.00
43683;BME280;29285;52.128;21.060;2023-04-24T22:24:17;99103.21;;;14.47;64.86
43683;BME280;29285;52.128;21.060;2023-04-24T22:29:18;99104.67;;;14.46;65.80
43683;BME280;29285;52.128;21.060;2023-04-24T22:34:19;99105.59;;;14.31;66.61
43683;BME280;29285;52.128;21.060;2023-04-24T22:39:21;99108.36;;;14.25;67.50
43683;BME280;29285;52.128;21.060;2023-04-24T22:44:22;99112.25;;;14.20;68.35
43683;BME280;29285;52.128;21.060;2023-04-24T22:49:23;99115.93;;;14.09;69.34
43683;BME280;29285;52.128;21.060;2023-04-24T22:54:27;99115.38;;;13.96;70.27
43683;BME280;29285;52.128;21.060;2023-04-24T22:59:28;99119.14;;;13.97;71.25
43683;BME280;29285;52.128;21.060;2023-04-24T23:04:29;99116.15;;;13.95;72.17
43683;BME280;29285;52.128;21.060;2023-04-24T23:09:30;99118.27;;;13.90;73.03
43683;BME280;29285;52.128;21.060;2023-04-24T23:14:31;99122.41;;;13.80;73.88
43683;BME280;29285;52.128;21.060;2023-04-24T23:19:33;99122.06;;;13.76;74.71
43683;BME280;29285;52.128;21.060;2023-04-24T23:24:35;99120.22;;;13.68;75.58
43683;BME280;29285;52.128;21.060;2023-04-24T23:29:35;99123.23;;;13.59;76.33
43683;BME280;29285;52.128;21.060;2023-04-24T23:34:37;99123.83;;;13.46;77.27
43683;BME280;29285;52.128;21.060;2023-04-24T23:39:39;99116.37;;;13.49;78.22
43683;BME280;29285;52.128;21.060;2023-04-24T23:44:43;99109.60;;;13.64;79.31
43683;BME280;29285;52.128;21.060;2023-04-24T23:49:44;99103.20;;;13.74;80.16
43683;BME280;29285;52.128;21.060;2023-04-24T23:54:46;99094.86;;;13.73;80.80
43683;BME280;29285;52.128;21.060;2023-04-24T23:59:47;99086.31;;;13.80;81.59
